KWJF/WJF METAR and TAF weather

Enter ICAO airport designator
Station Type Date Time Source
KWJF METAR 2020/11/27 02:56 UTC NOAA

KWJF 270256Z 07014KT 10SM CLR 07/M14 A3019 RMK AO2 SLP236 T00721139 53017


Station Type Date Time Source
KWJF Decoded METAR 2020/11/27 02:56 UTC NOAA

LANCASTER FOX AIRFIELD, CA, United States (KWJF) 34-44N 118-13W
Nov 26, 2020 - 09:56 PM EST / 2020.11.27 0256 UTC
Wind: from the ENE (070 degrees) at 16 MPH (14 KT):0
Visibility: 10 mile(s):0
Sky conditions: clear
Temperature: 45.0 F (7.2 C)
Dew Point: 7.0 F (-13.9 C)
Relative Humidity: 20%
Pressure (altimeter): 30.19 in. Hg (1022 hPa)
Pressure tendency: 0.05 inches (1.7 hPa) higher than three hours ago
ob: KWJF 270256Z 07014KT 10SM CLR 07/M14 A3019 RMK AO2 SLP236 T00721139 53017
cycle: 3

Station Type Date Time Source
KWJF TAF 2020/11/26 19:09 UTC NOAA

TAF
AMD KWJF 261907Z 2619/2718 08015G20KT P6SM SKC
FM262000 06023G30KT P6SM SKC
FM262300 05018G25KT P6SM SKC
FM270200 04007KT P6SM SKC
FM270500 35008KT P6SM SKC
FM270700 27006KT P6SM SKC
FM271400 VRB03KT P6SM SKC

Example: see airport list